createdAt,value
2023-03-06T00:00:48.567Z,7.10
2023-03-06T00:03:15.504Z,7.10
2023-03-06T00:05:42.514Z,7.10
2023-03-06T00:08:09.467Z,7.10
2023-03-06T00:10:36.654Z,7.10
2023-03-06T00:13:05.188Z,7.10
2023-03-06T00:15:32.145Z,7.10
2023-03-06T00:17:59.089Z,7.00
2023-03-06T00:20:26.746Z,7.00
2023-03-06T00:22:55.677Z,7.00
2023-03-06T00:25:22.875Z,7.00
2023-03-06T00:27:50.109Z,7.00
2023-03-06T00:30:21.757Z,7.00
2023-03-06T00:32:49.058Z,7.00
2023-03-06T00:35:15.902Z,7.00
2023-03-06T00:37:42.914Z,7.00
2023-03-06T00:40:11.265Z,6.90
2023-03-06T00:42:38.132Z,6.90
2023-03-06T00:45:05.280Z,6.80
2023-03-06T00:47:32.188Z,6.80
2023-03-06T00:49:59.172Z,6.80
2023-03-06T00:52:26.121Z,6.80
2023-03-06T00:54:55.643Z,6.80
2023-03-06T00:57:22.635Z,6.80
2023-03-06T00:59:49.623Z,6.80
2023-03-06T01:02:16.508Z,6.80
2023-03-06T01:04:43.440Z,6.80
2023-03-06T01:07:10.721Z,6.80
2023-03-06T01:09:37.590Z,6.80
2023-03-06T01:12:04.594Z,6.90
2023-03-06T01:14:32.163Z,6.90
2023-03-06T01:16:59.200Z,6.80
2023-03-06T01:19:26.148Z,6.80
2023-03-06T01:21:53.141Z,6.80
2023-03-06T01:24:20.038Z,6.80
2023-03-06T01:26:46.972Z,6.70
2023-03-06T01:29:13.874Z,6.70
2023-03-06T01:31:40.766Z,6.70
2023-03-06T01:34:07.647Z,6.70
2023-03-06T01:36:34.552Z,6.70
2023-03-06T01:39:01.504Z,6.70
2023-03-06T01:41:28.413Z,6.70
2023-03-06T01:43:55.341Z,6.70
2023-03-06T01:46:31.249Z,6.70
2023-03-06T01:49:07.460Z,6.70
2023-03-06T01:51:43.179Z,6.60
2023-03-06T01:54:14.930Z,6.70
2023-03-06T01:56:43.924Z,6.70
2023-03-06T01:59:11.071Z,6.60
2023-03-06T02:01:39.558Z,6.60
2023-03-06T02:04:06.643Z,6.70
2023-03-06T02:06:38.417Z,6.70
2023-03-06T02:09:05.974Z,6.70
2023-03-06T02:11:32.938Z,6.60
2023-03-06T02:13:59.919Z,6.60
2023-03-06T02:16:28.503Z,6.60
2023-03-06T02:18:55.533Z,6.60
2023-03-06T02:21:25.564Z,6.60
2023-03-06T02:23:52.446Z,6.60
2023-03-06T02:26:19.850Z,6.60
2023-03-06T02:28:46.758Z,6.60
2023-03-06T02:31:24.736Z,6.60
2023-03-06T02:34:21.020Z,6.60
2023-03-06T02:36:49.777Z,6.60
2023-03-06T02:39:20.091Z,6.60
2023-03-06T02:41:46.965Z,6.60
2023-03-06T02:44:13.956Z,6.60
2023-03-06T02:46:41.070Z,6.50
2023-03-06T02:49:08.190Z,6.50
2023-03-06T02:51:35.149Z,6.50
2023-03-06T02:54:02.097Z,6.50
2023-03-06T02:56:32.455Z,6.50
2023-03-06T02:58:59.300Z,6.50
2023-03-06T03:01:26.229Z,6.50
2023-03-06T03:03:53.150Z,6.50
2023-03-06T03:06:20.047Z,6.40
2023-03-06T03:08:47.101Z,6.40
2023-03-06T03:11:14.004Z,6.40
2023-03-06T03:13:40.980Z,6.40
2023-03-06T03:16:09.172Z,6.40
2023-03-06T03:18:36.564Z,6.40
2023-03-06T03:21:09.916Z,6.40
2023-03-06T03:23:36.824Z,6.40
2023-03-06T03:26:08.046Z,6.40
2023-03-06T03:28:35.026Z,6.40
2023-03-06T03:31:06.708Z,6.40
2023-03-06T03:33:34.098Z,6.50
2023-03-06T03:36:01.978Z,6.40
2023-03-06T03:38:29.499Z,6.40
2023-03-06T03:40:56.410Z,6.40
2023-03-06T03:43:23.364Z,6.40
2023-03-06T03:45:50.303Z,6.40
2023-03-06T03:48:17.174Z,6.40
2023-03-06T03:50:44.032Z,6.40
2023-03-06T03:53:11.108Z,6.40
2023-03-06T03:55:49.958Z,6.30
2023-03-06T03:58:16.875Z,6.30
2023-03-06T04:00:43.740Z,6.30
2023-03-06T04:03:10.987Z,6.30
2023-03-06T04:05:37.874Z,6.30
2023-03-06T04:08:05.698Z,6.30
2023-03-06T04:10:32.817Z,6.30
2023-03-06T04:13:00.026Z,6.30
2023-03-06T04:15:26.880Z,6.30
2023-03-06T04:17:53.770Z,6.20
2023-03-06T04:20:20.896Z,6.20
2023-03-06T04:22:47.861Z,6.20
2023-03-06T04:25:14.704Z,6.20
2023-03-06T04:27:41.621Z,6.20
2023-03-06T04:30:08.893Z,6.20
2023-03-06T04:32:35.837Z,6.20
2023-03-06T04:35:02.976Z,6.20
2023-03-06T04:37:29.961Z,6.20
2023-03-06T04:39:56.945Z,6.20
2023-03-06T04:42:23.818Z,6.10
2023-03-06T04:44:50.697Z,6.10
2023-03-06T04:47:19.136Z,6.10
2023-03-06T04:49:46.367Z,6.10
2023-03-06T04:52:13.195Z,6.00
2023-03-06T04:54:40.170Z,6.00
2023-03-06T04:57:08.558Z,6.00
2023-03-06T04:59:37.533Z,6.00
2023-03-06T05:02:06.025Z,5.90
2023-03-06T05:04:32.966Z,5.90
2023-03-06T05:06:59.946Z,6.00
2023-03-06T05:09:26.923Z,6.00
2023-03-06T05:11:53.893Z,6.10
2023-03-06T05:14:20.801Z,6.10
2023-03-06T05:16:47.928Z,6.20
2023-03-06T05:19:15.179Z,6.20
2023-03-06T05:21:42.128Z,6.20
2023-03-06T05:24:10.007Z,6.30
2023-03-06T05:26:37.077Z,6.20
2023-03-06T05:29:04.074Z,6.10
2023-03-06T05:31:31.010Z,6.10
2023-03-06T05:33:58.370Z,6.00
2023-03-06T05:36:25.382Z,6.00
2023-03-06T05:38:52.393Z,6.00
2023-03-06T05:41:19.354Z,6.00
2023-03-06T05:43:46.266Z,5.90
2023-03-06T05:46:13.222Z,5.90
2023-03-06T05:48:40.198Z,5.80
2023-03-06T05:51:07.146Z,5.80
2023-03-06T05:53:34.169Z,5.70
2023-03-06T05:56:05.518Z,5.70
2023-03-06T05:58:32.723Z,5.70
2023-03-06T06:00:59.823Z,5.70
2023-03-06T06:03:26.755Z,5.70
2023-03-06T06:05:53.764Z,5.80
2023-03-06T06:08:20.686Z,5.80
2023-03-06T06:10:47.733Z,5.70
2023-03-06T06:13:14.632Z,5.70
2023-03-06T06:15:41.551Z,5.80
2023-03-06T06:18:08.585Z,5.90
2023-03-06T06:20:36.993Z,5.90
2023-03-06T06:23:03.926Z,5.90
2023-03-06T06:25:31.006Z,5.90
2023-03-06T06:27:58.039Z,5.90
2023-03-06T06:30:25.365Z,6.00
2023-03-06T06:32:52.349Z,6.00
2023-03-06T06:35:19.304Z,6.00
2023-03-06T06:37:46.387Z,6.00
2023-03-06T06:40:13.475Z,6.10
2023-03-06T06:42:40.579Z,6.10
2023-03-06T06:45:08.558Z,6.10
2023-03-06T06:47:38.607Z,6.20
2023-03-06T06:50:06.038Z,6.20
2023-03-06T06:52:32.954Z,6.20
2023-03-06T06:54:59.851Z,6.20
2023-03-06T06:57:26.821Z,6.20
2023-03-06T06:59:54.255Z,6.30
2023-03-06T07:02:22.448Z,6.40
2023-03-06T07:05:02.929Z,6.50
2023-03-06T07:07:31.608Z,6.60
2023-03-06T07:09:58.470Z,6.60
2023-03-06T07:12:25.503Z,6.70
2023-03-06T07:14:52.345Z,6.80
2023-03-06T07:17:19.235Z,6.80
2023-03-06T07:19:46.131Z,6.90
2023-03-06T07:22:13.293Z,6.90
2023-03-06T07:24:40.303Z,6.90
2023-03-06T07:27:07.238Z,7.00
2023-03-06T07:29:34.715Z,7.00
2023-03-06T07:32:01.741Z,7.00
2023-03-06T07:34:28.713Z,7.10
2023-03-06T07:36:55.618Z,7.10
2023-03-06T07:39:22.438Z,7.10
2023-03-06T07:41:49.467Z,7.20
2023-03-06T07:44:16.352Z,7.10
2023-03-06T07:46:43.198Z,7.20
2023-03-06T07:49:10.168Z,7.20
2023-03-06T07:51:37.093Z,7.20
2023-03-06T07:54:04.030Z,7.20
2023-03-06T07:56:30.894Z,7.30
2023-03-06T07:58:57.774Z,7.30
2023-03-06T08:01:24.818Z,7.40
2023-03-06T08:03:52.233Z,7.40
2023-03-06T08:06:23.782Z,7.40
2023-03-06T08:08:51.796Z,7.50
2023-03-06T08:11:19.629Z,7.50
2023-03-06T08:13:48.681Z,7.60
2023-03-06T08:16:17.473Z,7.60
2023-03-06T08:18:46.318Z,7.60
2023-03-06T08:21:14.581Z,7.70
2023-03-06T08:23:41.957Z,7.70
2023-03-06T08:26:13.543Z,7.80
2023-03-06T08:28:40.645Z,7.80
2023-03-06T08:31:08.993Z,7.90
2023-03-06T08:33:36.446Z,8.00
2023-03-06T08:36:03.628Z,8.00
2023-03-06T08:38:30.514Z,8.10
2023-03-06T08:40:57.938Z,8.10
2023-03-06T08:43:24.945Z,8.10
2023-03-06T08:45:53.372Z,8.00
2023-03-06T08:48:20.368Z,7.90
2023-03-06T08:50:47.583Z,7.90
2023-03-06T08:53:14.794Z,7.90
2023-03-06T08:55:41.687Z,8.00
2023-03-06T08:58:08.884Z,8.00
2023-03-06T09:00:36.189Z,8.10
2023-03-06T09:03:03.365Z,8.10
2023-03-06T09:05:30.210Z,8.20
2023-03-06T09:07:57.158Z,8.30
2023-03-06T09:10:25.211Z,8.30
2023-03-06T09:12:54.810Z,8.40
2023-03-06T09:15:22.991Z,8.40
2023-03-06T09:17:50.973Z,8.50
2023-03-06T09:20:18.750Z,8.50
2023-03-06T09:22:48.681Z,8.60
2023-03-06T09:25:20.349Z,8.60
2023-03-06T09:27:55.486Z,8.70
2023-03-06T09:30:25.306Z,8.70
2023-03-06T09:32:52.193Z,8.80
2023-03-06T09:35:19.119Z,8.90
2023-03-06T09:37:46.448Z,9.00
2023-03-06T09:40:36.591Z,9.10
2023-03-06T09:43:03.496Z,9.20
2023-03-06T09:45:30.931Z,9.30
2023-03-06T09:47:57.750Z,9.50
2023-03-06T09:50:33.754Z,9.60
2023-03-06T09:53:16.439Z,9.60
2023-03-06T09:55:46.152Z,9.60
2023-03-06T09:58:13.061Z,9.60
2023-03-06T10:00:42.175Z,9.70
2023-03-06T10:03:35.208Z,9.80
2023-03-06T10:06:04.358Z,9.90
2023-03-06T10:08:44.803Z,9.90
2023-03-06T10:11:13.343Z,10.00
2023-03-06T10:13:43.413Z,10.00
2023-03-06T10:16:15.549Z,10.10
2023-03-06T10:18:42.598Z,10.10
2023-03-06T10:21:32.734Z,10.20
2023-03-06T10:24:18.280Z,10.20
2023-03-06T10:26:49.956Z,10.20
2023-03-06T10:29:19.953Z,10.20
2023-03-06T10:31:51.618Z,10.20
2023-03-06T10:34:23.072Z,10.20
2023-03-06T10:36:50.819Z,10.20
2023-03-06T10:39:20.133Z,10.30
2023-03-06T10:41:47.459Z,10.30
2023-03-06T10:44:14.280Z,10.40
2023-03-06T10:46:45.201Z,10.50
2023-03-06T10:49:15.255Z,10.70
2023-03-06T10:51:55.294Z,11.00
2023-03-06T10:54:22.340Z,11.20
2023-03-06T10:56:49.234Z,11.30
2023-03-06T10:59:27.439Z,11.40
2023-03-06T11:01:58.945Z,11.60
2023-03-06T11:04:29.054Z,11.80
2023-03-06T11:07:05.181Z,12.00
2023-03-06T11:09:33.443Z,12.20
2023-03-06T11:12:18.751Z,12.40
2023-03-06T11:14:45.637Z,12.60
2023-03-06T11:17:27.422Z,12.60
2023-03-06T11:20:13.232Z,12.60
2023-03-06T11:22:41.363Z,12.60
2023-03-06T11:28:00.403Z,12.40
2023-03-06T11:30:32.022Z,12.20
2023-03-06T11:33:00.654Z,12.10
2023-03-06T11:35:40.083Z,12.00
2023-03-06T11:38:30.963Z,11.90
2023-03-06T11:40:59.937Z,11.80
2023-03-06T11:43:35.483Z,11.70
2023-03-06T11:46:07.354Z,11.60
2023-03-06T11:48:42.524Z,11.50
2023-03-06T11:51:19.163Z,11.40
2023-03-06T11:53:47.023Z,11.30
2023-03-06T11:56:22.953Z,11.30
2023-03-06T11:58:49.846Z,11.10
2023-03-06T12:01:26.106Z,11.10
2023-03-06T12:04:02.856Z,11.00
2023-03-06T12:06:48.761Z,11.00
2023-03-06T12:09:27.684Z,10.90
2023-03-06T12:11:54.515Z,10.80
2023-03-06T12:14:27.746Z,10.70
2023-03-06T12:16:54.717Z,10.60
2023-03-06T12:19:28.518Z,10.60
2023-03-06T12:22:04.455Z,10.60
2023-03-06T12:24:49.698Z,10.60
2023-03-06T12:27:16.636Z,10.70
2023-03-06T12:29:46.753Z,10.80
2023-03-06T12:32:17.859Z,10.80
2023-03-06T12:34:47.868Z,10.80
2023-03-06T12:37:17.904Z,10.70
2023-03-06T12:39:47.771Z,10.70
2023-03-06T12:42:26.654Z,10.60
2023-03-06T12:44:56.514Z,10.50
2023-03-06T12:47:25.808Z,10.40
2023-03-06T12:49:57.396Z,10.40
2023-03-06T12:52:30.748Z,10.40
2023-03-06T12:54:59.749Z,10.40
2023-03-06T12:57:27.282Z,10.30
2023-03-06T12:59:54.916Z,10.30
2023-03-06T13:02:27.877Z,10.30
2023-03-06T13:04:57.821Z,10.30
2023-03-06T13:07:43.565Z,10.30
2023-03-06T13:10:15.446Z,10.30
2023-03-06T13:12:57.701Z,10.30
2023-03-06T13:15:43.584Z,10.30
2023-03-06T13:18:22.811Z,10.30
2023-03-06T13:20:53.311Z,10.30
2023-03-06T13:23:29.748Z,10.20
2023-03-06T13:25:57.840Z,10.20
2023-03-06T13:28:26.534Z,10.20
2023-03-06T13:30:56.217Z,10.10
2023-03-06T13:33:37.473Z,10.10
2023-03-06T13:36:39.973Z,10.10
2023-03-06T13:39:10.802Z,10.10
2023-03-06T13:41:53.168Z,10.00
2023-03-06T13:44:26.032Z,10.00
2023-03-06T13:47:01.598Z,10.00
2023-03-06T13:49:29.012Z,10.00
2023-03-06T13:51:55.847Z,10.10
2023-03-06T13:54:25.584Z,10.10
2023-03-06T13:56:52.516Z,10.10
2023-03-06T13:59:22.317Z,10.10
2023-03-06T14:01:51.993Z,10.10
2023-03-06T14:04:36.924Z,10.10
2023-03-06T14:07:23.451Z,10.00
2023-03-06T14:09:56.194Z,10.00
2023-03-06T14:12:25.060Z,10.30
2023-03-06T14:14:56.840Z,10.40
2023-03-06T14:17:26.828Z,10.40
2023-03-06T14:19:54.107Z,10.30
2023-03-06T14:22:23.143Z,10.30
2023-03-06T14:24:55.485Z,10.20
2023-03-06T14:27:37.312Z,10.10
2023-03-06T14:30:15.585Z,10.00
2023-03-06T14:32:42.667Z,10.00
2023-03-06T14:35:26.913Z,9.90
2023-03-06T14:37:55.826Z,9.90
2023-03-06T14:40:29.640Z,9.90
2023-03-06T14:43:17.908Z,9.80
2023-03-06T14:45:58.335Z,9.80
2023-03-06T14:48:26.946Z,9.70
2023-03-06T14:50:55.347Z,9.70
2023-03-06T14:53:24.170Z,9.70
2023-03-06T14:55:53.482Z,9.60
2023-03-06T14:58:22.077Z,9.60
2023-03-06T15:00:50.986Z,9.60
2023-03-06T15:03:26.121Z,9.60
2023-03-06T15:05:53.759Z,9.60
2023-03-06T15:08:24.111Z,9.50
2023-03-06T15:10:55.874Z,9.50
2023-03-06T15:13:24.047Z,9.50
2023-03-06T15:16:23.700Z,9.40
2023-03-06T15:18:57.860Z,9.40
2023-03-06T15:21:26.815Z,9.40
2023-03-06T15:23:55.070Z,9.30
2023-03-06T15:26:21.915Z,9.30
2023-03-06T15:29:08.296Z,9.30
2023-03-06T15:31:36.912Z,9.30
2023-03-06T15:34:06.911Z,9.30
2023-03-06T15:36:35.111Z,9.30
2023-03-06T15:39:02.290Z,9.30
2023-03-06T15:41:38.371Z,9.30
2023-03-06T15:44:13.026Z,9.30
2023-03-06T15:46:39.941Z,9.30
2023-03-06T15:49:13.702Z,9.30
2023-03-06T15:51:40.558Z,9.30
2023-03-06T15:54:12.373Z,9.30
2023-03-06T15:56:41.037Z,9.20
2023-03-06T15:59:11.535Z,9.20
2023-03-06T16:01:39.296Z,9.20
2023-03-06T16:04:06.219Z,9.20
2023-03-06T16:06:33.175Z,9.20
2023-03-06T16:09:00.021Z,9.20
2023-03-06T16:11:41.911Z,9.20
2023-03-06T16:14:16.133Z,9.20
2023-03-06T16:16:43.103Z,9.20
2023-03-06T16:19:25.402Z,9.20
2023-03-06T16:21:53.163Z,9.20
2023-03-06T16:24:20.050Z,9.20
2023-03-06T16:26:48.667Z,9.20
2023-03-06T16:29:18.544Z,9.20
2023-03-06T16:31:45.453Z,9.20
2023-03-06T16:34:12.387Z,9.20
2023-03-06T16:36:39.468Z,9.10
2023-03-06T16:39:06.581Z,9.10
2023-03-06T16:41:33.503Z,9.10
2023-03-06T16:44:00.479Z,9.10
2023-03-06T16:46:27.476Z,9.10
2023-03-06T16:48:54.528Z,9.10
2023-03-06T16:51:22.784Z,9.00
2023-03-06T16:53:53.052Z,9.00
2023-03-06T16:56:20.689Z,9.00
2023-03-06T16:58:47.731Z,9.00
2023-03-06T17:01:18.923Z,8.90
2023-03-06T17:03:46.037Z,8.90
2023-03-06T17:06:17.483Z,8.90
2023-03-06T17:08:44.875Z,8.90
2023-03-06T17:11:12.130Z,8.90
2023-03-06T17:13:39.113Z,8.90
2023-03-06T17:16:06.613Z,8.90
2023-03-06T17:18:33.648Z,8.90
2023-03-06T17:21:00.886Z,8.90
2023-03-06T17:23:29.253Z,8.90
2023-03-06T17:26:03.118Z,8.90
2023-03-06T17:28:30.119Z,8.90
2023-03-06T17:30:57.182Z,8.90
2023-03-06T17:33:24.059Z,8.90
2023-03-06T17:35:51.000Z,8.90
2023-03-06T17:38:17.841Z,8.80
2023-03-06T17:40:44.734Z,8.80
2023-03-06T17:43:11.596Z,8.80
2023-03-06T17:45:38.497Z,8.80
2023-03-06T17:48:05.456Z,8.80
2023-03-06T17:50:32.291Z,8.90
2023-03-06T17:52:59.226Z,8.90
2023-03-06T17:55:27.587Z,8.80
2023-03-06T17:57:54.477Z,8.80
2023-03-06T18:00:23.090Z,8.80
2023-03-06T18:02:49.935Z,8.80
2023-03-06T18:05:18.208Z,8.80
2023-03-06T18:07:45.127Z,8.80
2023-03-06T18:10:12.029Z,8.80
2023-03-06T18:12:38.906Z,8.70
2023-03-06T18:15:06.028Z,8.70
2023-03-06T18:17:33.228Z,8.60
2023-03-06T18:20:00.127Z,8.60
2023-03-06T18:22:27.082Z,8.60
2023-03-06T18:24:53.927Z,8.60
2023-03-06T18:27:21.940Z,8.50
2023-03-06T18:29:48.875Z,8.50
2023-03-06T18:32:15.835Z,8.50
2023-03-06T18:34:42.736Z,8.60
2023-03-06T18:37:09.604Z,8.60
2023-03-06T18:39:36.438Z,8.60
2023-03-06T18:42:05.661Z,8.50
2023-03-06T18:44:32.607Z,8.50
2023-03-06T18:46:59.434Z,8.50
2023-03-06T18:49:26.459Z,8.50
2023-03-06T18:51:53.959Z,8.50
2023-03-06T18:54:21.025Z,8.50
2023-03-06T18:57:01.640Z,8.50
2023-03-06T18:59:31.242Z,8.50
2023-03-06T19:01:58.917Z,8.50
2023-03-06T19:04:31.164Z,8.50
2023-03-06T19:06:58.564Z,8.50
2023-03-06T19:09:25.522Z,8.50
2023-03-06T19:11:54.734Z,8.50
2023-03-06T19:14:21.832Z,8.50
2023-03-06T19:16:48.790Z,8.40
2023-03-06T19:19:15.735Z,8.40
2023-03-06T19:21:42.636Z,8.40
2023-03-06T19:24:14.061Z,8.50
2023-03-06T19:26:42.055Z,8.50
2023-03-06T19:29:09.033Z,8.50
2023-03-06T19:31:35.905Z,8.50
2023-03-06T19:34:02.892Z,8.50
2023-03-06T19:36:33.645Z,8.50
2023-03-06T19:39:02.153Z,8.50
2023-03-06T19:41:29.418Z,8.50
2023-03-06T19:43:58.490Z,8.50
2023-03-06T19:46:25.986Z,8.50
2023-03-06T19:48:57.234Z,8.50
2023-03-06T19:51:24.596Z,8.50
2023-03-06T19:53:51.696Z,8.50
2023-03-06T19:56:22.933Z,8.50
2023-03-06T19:58:49.916Z,8.50
2023-03-06T20:01:18.190Z,8.50
2023-03-06T20:03:45.938Z,8.50
2023-03-06T20:06:14.173Z,8.50
2023-03-06T20:08:41.739Z,8.40
2023-03-06T20:11:32.665Z,8.40
2023-03-06T20:14:00.774Z,8.40
2023-03-06T20:16:29.140Z,8.40
2023-03-06T20:18:58.871Z,8.40
2023-03-06T20:21:26.580Z,8.40
2023-03-06T20:23:58.019Z,8.40
2023-03-06T20:26:26.086Z,8.40
2023-03-06T20:28:53.164Z,8.40
2023-03-06T20:31:21.242Z,8.30
2023-03-06T20:33:49.037Z,8.30
2023-03-06T20:36:23.476Z,8.30
2023-03-06T20:38:50.984Z,8.30
2023-03-06T20:41:19.173Z,8.40
2023-03-06T20:43:46.216Z,8.30
2023-03-06T20:46:23.694Z,8.30
2023-03-06T20:48:53.445Z,8.30
2023-03-06T20:51:33.953Z,8.30
2023-03-06T20:54:03.070Z,8.30
2023-03-06T20:56:37.071Z,8.40
2023-03-06T20:59:08.528Z,8.40
2023-03-06T21:01:45.688Z,8.40
2023-03-06T21:04:18.327Z,8.30
2023-03-06T21:06:47.104Z,8.30
2023-03-06T21:09:15.919Z,8.30
2023-03-06T21:11:42.923Z,8.30
2023-03-06T21:14:10.911Z,8.30
2023-03-06T21:16:37.802Z,8.30
2023-03-06T21:19:05.403Z,8.40
2023-03-06T21:21:33.830Z,8.40
2023-03-06T21:24:01.426Z,8.30
2023-03-06T21:26:29.661Z,8.30
2023-03-06T21:28:59.053Z,8.30
2023-03-06T21:31:27.197Z,8.30
2023-03-06T21:33:54.430Z,8.30
2023-03-06T21:36:21.907Z,8.30
2023-03-06T21:38:49.665Z,8.20
2023-03-06T21:41:18.301Z,8.20
2023-03-06T21:43:45.242Z,8.20
2023-03-06T21:46:12.550Z,8.20
2023-03-06T21:48:39.555Z,8.30
2023-03-06T21:51:11.515Z,8.30
2023-03-06T21:53:41.080Z,8.20
2023-03-06T21:56:08.702Z,8.20
2023-03-06T21:58:35.686Z,8.10
2023-03-06T22:01:03.148Z,8.10
2023-03-06T22:03:30.152Z,8.00
2023-03-06T22:05:57.058Z,8.00
2023-03-06T22:08:25.277Z,8.00
2023-03-06T22:10:52.187Z,8.00
2023-03-06T22:13:19.578Z,7.90
2023-03-06T22:15:50.668Z,7.90
2023-03-06T22:18:17.738Z,7.80
2023-03-06T22:20:44.840Z,7.80
2023-03-06T22:23:12.149Z,7.80
2023-03-06T22:25:39.045Z,7.80
2023-03-06T22:28:05.967Z,7.80
2023-03-06T22:30:32.896Z,7.80
2023-03-06T22:32:59.811Z,7.90
2023-03-06T22:35:26.669Z,7.90
2023-03-06T22:37:53.592Z,7.80
2023-03-06T22:40:20.580Z,7.80
2023-03-06T22:42:47.490Z,7.80
2023-03-06T22:45:14.489Z,7.80
2023-03-06T22:47:41.388Z,7.80
2023-03-06T22:50:08.819Z,7.80
2023-03-06T22:52:35.725Z,7.90
2023-03-06T22:55:02.638Z,7.90
2023-03-06T22:57:30.226Z,7.90
2023-03-06T22:59:57.270Z,8.00
2023-03-06T23:02:24.225Z,8.00
2023-03-06T23:04:54.462Z,8.00
2023-03-06T23:07:21.336Z,8.10
2023-03-06T23:09:48.255Z,8.10
2023-03-06T23:12:15.175Z,8.10
2023-03-06T23:14:42.200Z,8.10
2023-03-06T23:17:09.571Z,8.00
2023-03-06T23:19:36.492Z,8.00
2023-03-06T23:22:03.462Z,8.00
2023-03-06T23:24:30.364Z,8.00
2023-03-06T23:26:57.158Z,8.00
2023-03-06T23:29:24.044Z,7.90
2023-03-06T23:31:50.889Z,7.90
2023-03-06T23:34:17.820Z,7.90
2023-03-06T23:36:44.727Z,7.90
2023-03-06T23:39:12.380Z,7.80
2023-03-06T23:41:39.380Z,7.80
2023-03-06T23:44:06.260Z,7.80
2023-03-06T23:46:33.179Z,7.80
2023-03-06T23:49:00.276Z,7.80
2023-03-06T23:51:27.184Z,7.80
2023-03-06T23:53:55.688Z,7.80
2023-03-06T23:56:22.991Z,7.80
2023-03-06T23:58:49.914Z,7.70
